createdAt,value
2022-12-20T00:01:30.171Z,20.50
2022-12-20T00:03:59.403Z,22.85
2022-12-20T00:06:27.098Z,20.60
2022-12-20T00:08:59.814Z,19.65
2022-12-20T00:11:28.061Z,21.33
2022-12-20T00:13:55.548Z,20.08
2022-12-20T00:16:24.701Z,19.63
2022-12-20T00:18:54.842Z,20.45
2022-12-20T00:21:23.521Z,19.33
2022-12-20T00:23:52.648Z,20.25
2022-12-20T00:26:21.955Z,19.95
2022-12-20T00:28:50.191Z,21.48
2022-12-20T00:31:19.440Z,21.35
2022-12-20T00:33:49.297Z,20.17
2022-12-20T00:36:17.376Z,19.38
2022-12-20T00:38:50.024Z,21.27
2022-12-20T00:41:21.957Z,20.15
2022-12-20T00:43:49.690Z,21.15
2022-12-20T00:46:19.679Z,20.58
2022-12-20T00:48:47.690Z,19.90
2022-12-20T00:51:17.664Z,20.58
2022-12-20T00:53:46.924Z,19.92
2022-12-20T00:56:15.681Z,20.33
2022-12-20T00:58:44.341Z,21.50
2022-12-20T01:01:22.177Z,19.63
2022-12-20T01:03:51.104Z,21.73
2022-12-20T01:06:21.134Z,20.95
2022-12-20T01:08:48.512Z,21.10
2022-12-20T01:11:19.567Z,19.77
2022-12-20T01:13:51.338Z,22.75
2022-12-20T01:16:39.392Z,18.70
2022-12-20T01:19:09.530Z,22.02
2022-12-20T01:21:39.882Z,20.25
2022-12-20T01:24:07.082Z,21.02
2022-12-20T01:26:34.185Z,20.05
2022-12-20T01:29:01.445Z,19.75
2022-12-20T01:31:30.656Z,19.45
2022-12-20T01:33:58.536Z,21.40
2022-12-20T01:36:31.875Z,20.98
2022-12-20T01:39:11.588Z,19.70
2022-12-20T01:41:39.732Z,19.83
2022-12-20T01:44:19.004Z,19.67
2022-12-20T01:46:47.784Z,18.90
2022-12-20T01:49:28.870Z,19.13
2022-12-20T01:52:14.050Z,19.77
2022-12-20T01:54:49.797Z,18.33
2022-12-20T01:57:22.381Z,19.35
2022-12-20T01:59:51.903Z,18.45
2022-12-20T02:02:20.769Z,19.13
2022-12-20T02:04:49.149Z,18.65
2022-12-20T02:07:22.263Z,19.00
2022-12-20T02:09:50.024Z,18.95
2022-12-20T02:12:25.482Z,18.83
2022-12-20T02:15:29.594Z,19.13
2022-12-20T02:18:24.178Z,21.60
2022-12-20T02:21:15.653Z,20.95
2022-12-20T02:24:20.562Z,20.58
2022-12-20T02:26:50.486Z,19.70
2022-12-20T02:29:28.172Z,20.00
2022-12-20T02:32:08.420Z,20.08
2022-12-20T02:34:37.589Z,22.05
2022-12-20T02:37:04.795Z,19.98
2022-12-20T02:39:33.679Z,20.45
2022-12-20T02:42:09.328Z,20.83
2022-12-20T02:45:00.317Z,19.92
2022-12-20T02:47:33.657Z,20.77
2022-12-20T02:50:02.691Z,20.48
2022-12-20T02:52:31.734Z,21.20
2022-12-20T02:55:01.366Z,20.63
2022-12-20T02:58:01.003Z,19.83
2022-12-20T03:00:34.385Z,19.67
2022-12-20T03:03:20.725Z,19.75
2022-12-20T03:05:49.964Z,19.27
2022-12-20T03:08:19.510Z,19.95
2022-12-20T03:10:48.228Z,18.95
2022-12-20T03:16:07.928Z,20.88
2022-12-20T03:18:35.417Z,18.73
2022-12-20T03:21:04.535Z,21.88
2022-12-20T03:23:32.156Z,18.92
2022-12-20T03:25:59.529Z,20.80
2022-12-20T03:28:41.436Z,19.58
2022-12-20T03:31:11.427Z,18.88
2022-12-20T03:33:46.172Z,19.70
2022-12-20T03:36:13.340Z,19.15
2022-12-20T03:38:41.136Z,19.65
2022-12-20T03:41:08.668Z,19.08
2022-12-20T03:44:52.047Z,17.95
2022-12-20T03:47:20.634Z,19.15
2022-12-20T03:49:48.533Z,19.83
2022-12-20T03:52:15.555Z,20.75
2022-12-20T03:54:44.051Z,20.70
2022-12-20T03:57:18.147Z,20.92
2022-12-20T03:59:47.783Z,20.30
2022-12-20T04:02:16.873Z,20.60
2022-12-20T04:04:44.140Z,21.73
2022-12-20T04:07:11.181Z,20.60
2022-12-20T04:09:41.733Z,22.55
2022-12-20T04:12:12.164Z,21.67
2022-12-20T04:14:39.888Z,19.90
2022-12-20T04:17:07.388Z,20.63
2022-12-20T04:19:35.048Z,18.58
2022-12-20T04:22:06.127Z,20.17
2022-12-20T04:24:47.919Z,20.33
2022-12-20T04:27:33.924Z,19.27
2022-12-20T04:30:06.096Z,18.08
2022-12-20T04:32:33.499Z,19.17
2022-12-20T04:35:01.624Z,20.35
2022-12-20T04:37:28.700Z,18.90
2022-12-20T04:39:58.396Z,18.33
2022-12-20T04:42:41.052Z,18.25
2022-12-20T04:45:12.462Z,17.05
2022-12-20T04:47:39.876Z,17.40
2022-12-20T04:50:08.862Z,20.75
2022-12-20T04:52:54.798Z,18.95
2022-12-20T04:55:22.056Z,17.55
2022-12-20T04:57:49.154Z,18.20
2022-12-20T05:00:17.318Z,17.63
2022-12-20T05:02:50.819Z,16.30
2022-12-20T05:05:20.517Z,17.67
2022-12-20T05:07:52.192Z,18.55
2022-12-20T05:10:19.694Z,18.98
2022-12-20T05:12:49.345Z,19.15
2022-12-20T05:15:26.914Z,22.08
2022-12-20T05:17:59.537Z,21.58
2022-12-20T05:23:37.227Z,19.50
2022-12-20T05:26:18.719Z,20.20
2022-12-20T05:28:46.783Z,23.75
2022-12-20T05:31:14.053Z,21.38
2022-12-20T05:33:41.135Z,20.23
2022-12-20T05:36:09.309Z,20.17
2022-12-20T05:38:36.777Z,20.33
2022-12-20T05:41:11.107Z,18.67
2022-12-20T05:43:38.651Z,20.38
2022-12-20T05:46:05.902Z,20.33
2022-12-20T05:48:49.987Z,23.75
2022-12-20T05:51:18.258Z,22.73
2022-12-20T05:54:17.447Z,19.38
2022-12-20T05:56:54.278Z,19.30
2022-12-20T05:59:28.303Z,22.23
2022-12-20T06:01:55.850Z,21.30
2022-12-20T06:04:25.044Z,21.17
2022-12-20T06:06:53.040Z,21.90
2022-12-20T06:09:20.494Z,21.52
2022-12-20T06:12:01.422Z,20.15
2022-12-20T06:14:29.716Z,22.88
2022-12-20T06:16:57.613Z,20.67
2022-12-20T06:19:24.785Z,21.05
2022-12-20T06:21:55.543Z,23.05
2022-12-20T06:24:34.619Z,19.92
2022-12-20T06:27:02.990Z,21.60
2022-12-20T06:29:30.917Z,20.42
2022-12-20T06:32:07.484Z,21.20
2022-12-20T06:34:34.639Z,19.00
2022-12-20T06:37:02.608Z,19.02
2022-12-20T06:39:32.990Z,20.60
2022-12-20T06:42:04.740Z,20.63
2022-12-20T06:44:31.822Z,16.98
2022-12-20T06:46:59.384Z,19.83
2022-12-20T06:49:27.052Z,19.80
2022-12-20T06:51:55.411Z,22.38
2022-12-20T06:54:29.000Z,20.95
2022-12-20T06:56:57.144Z,21.98
2022-12-20T06:59:24.617Z,21.85
2022-12-20T07:01:53.251Z,22.63
2022-12-20T07:04:20.405Z,20.33
2022-12-20T07:06:47.736Z,19.58
2022-12-20T07:09:16.040Z,19.63
2022-12-20T07:11:43.918Z,18.63
2022-12-20T07:14:12.922Z,19.15
2022-12-20T07:16:43.484Z,17.77
2022-12-20T07:19:15.559Z,19.85
2022-12-20T07:21:44.438Z,20.48
2022-12-20T07:24:12.310Z,22.23
2022-12-20T07:26:39.418Z,20.45
2022-12-20T07:29:11.882Z,19.40
2022-12-20T07:31:42.526Z,19.85
2022-12-20T07:34:09.828Z,21.27
2022-12-20T07:36:38.966Z,21.52
2022-12-20T07:39:06.370Z,19.40
2022-12-20T07:41:35.486Z,19.05
2022-12-20T07:44:04.366Z,19.15
2022-12-20T07:46:31.526Z,17.10
2022-12-20T07:48:58.810Z,19.40
2022-12-20T07:51:32.392Z,19.63
2022-12-20T07:54:06.379Z,16.40
2022-12-20T07:56:41.650Z,19.23
2022-12-20T07:59:12.373Z,18.83
2022-12-20T08:01:40.958Z,18.10
2022-12-20T08:04:16.029Z,18.50
2022-12-20T08:06:43.512Z,18.47
2022-12-20T08:09:13.432Z,17.38
2022-12-20T08:11:43.515Z,17.80
2022-12-20T08:14:11.627Z,17.05
2022-12-20T08:16:40.370Z,18.00
2022-12-20T08:19:07.763Z,18.20
2022-12-20T08:21:34.901Z,18.02
2022-12-20T08:24:03.455Z,17.98
2022-12-20T08:26:31.060Z,19.08
2022-12-20T08:28:58.165Z,18.20
2022-12-20T08:31:25.379Z,19.33
2022-12-20T08:33:54.992Z,20.52
2022-12-20T08:36:22.209Z,19.52
2022-12-20T08:38:49.221Z,19.40
2022-12-20T08:41:17.791Z,19.77
2022-12-20T08:43:44.913Z,21.65
2022-12-20T08:46:16.554Z,19.85
2022-12-20T08:48:43.805Z,19.92
2022-12-20T08:51:12.951Z,19.15
2022-12-20T08:53:40.972Z,20.45
2022-12-20T08:56:14.190Z,19.98
2022-12-20T08:58:42.855Z,20.90
2022-12-20T09:01:16.231Z,20.75
2022-12-20T09:03:45.444Z,20.75
2022-12-20T09:06:20.252Z,22.73
2022-12-20T09:08:48.273Z,21.98
2022-12-20T09:11:18.764Z,21.20
2022-12-20T09:13:49.060Z,19.70
2022-12-20T09:16:19.736Z,22.60
2022-12-20T09:18:51.446Z,19.05
2022-12-20T09:21:19.183Z,20.02
2022-12-20T09:23:46.770Z,20.35
2022-12-20T09:26:15.950Z,20.95
2022-12-20T09:28:44.344Z,18.45
2022-12-20T09:31:21.450Z,18.45
2022-12-20T09:33:48.826Z,19.98
2022-12-20T09:36:19.459Z,18.80
2022-12-20T09:38:47.374Z,20.50
2022-12-20T09:41:29.975Z,19.80
2022-12-20T09:43:58.827Z,20.38
2022-12-20T09:46:27.695Z,20.83
2022-12-20T09:48:55.327Z,19.80
2022-12-20T09:51:50.270Z,20.10
2022-12-20T09:54:49.499Z,19.33
2022-12-20T09:57:43.876Z,21.45
2022-12-20T10:00:15.807Z,21.05
2022-12-20T10:03:00.118Z,21.35
2022-12-20T10:05:41.147Z,22.55
2022-12-20T10:08:26.893Z,20.35
2022-12-20T10:11:25.085Z,19.95
2022-12-20T10:14:16.696Z,21.13
2022-12-20T10:16:50.304Z,21.83
2022-12-20T10:19:35.487Z,22.50
2022-12-20T10:22:06.823Z,21.37
2022-12-20T10:24:35.711Z,22.95
2022-12-20T10:27:17.294Z,21.52
2022-12-20T10:29:46.514Z,21.30
2022-12-20T10:32:24.844Z,20.50
2022-12-20T10:35:10.349Z,22.55
2022-12-20T10:37:41.363Z,22.20
2022-12-20T10:41:01.419Z,21.73
2022-12-20T10:43:22.451Z,20.77
2022-12-20T10:46:03.152Z,21.42
2022-12-20T10:48:36.303Z,20.95
2022-12-20T10:51:16.763Z,22.15
2022-12-20T10:53:59.457Z,19.88
2022-12-20T10:56:32.613Z,21.42
2022-12-20T10:59:01.754Z,20.83
2022-12-20T11:01:36.589Z,22.20
2022-12-20T11:04:29.911Z,20.95
2022-12-20T11:06:58.629Z,21.90
2022-12-20T11:09:35.767Z,23.48
2022-12-20T11:12:16.905Z,23.02
2022-12-20T11:14:46.028Z,21.13
2022-12-20T11:17:13.165Z,22.20
2022-12-20T11:20:23.580Z,21.77
2022-12-20T11:23:20.591Z,20.95
2022-12-20T11:28:22.217Z,20.48
2022-12-20T11:31:16.157Z,21.17
2022-12-20T11:34:15.338Z,21.75
2022-12-20T11:36:49.511Z,22.17
2022-12-20T11:39:29.665Z,21.33
2022-12-20T11:42:17.706Z,20.45
2022-12-20T11:45:10.388Z,21.27
2022-12-20T11:48:04.919Z,20.50
2022-12-20T11:51:14.997Z,21.05
2022-12-20T11:54:01.839Z,19.33
2022-12-20T11:56:43.917Z,21.27
2022-12-20T11:59:20.905Z,21.33
2022-12-20T12:02:03.209Z,19.60
2022-12-20T12:04:37.376Z,20.83
2022-12-20T12:07:17.227Z,20.58
2022-12-20T12:09:53.323Z,20.60
2022-12-20T12:12:23.182Z,23.10
2022-12-20T12:14:54.490Z,21.83
2022-12-20T12:17:39.300Z,22.38
2022-12-20T12:20:44.178Z,20.38
2022-12-20T12:23:26.730Z,21.40
2022-12-20T12:25:55.263Z,21.73
2022-12-20T12:28:23.096Z,20.95
2022-12-20T12:31:07.088Z,21.00
2022-12-20T12:34:11.107Z,21.75
2022-12-20T12:36:59.890Z,20.17
2022-12-20T12:39:39.592Z,23.58
2022-12-20T12:42:26.969Z,21.33
2022-12-20T12:45:05.184Z,20.80
2022-12-20T12:47:40.927Z,20.48
2022-12-20T12:50:27.335Z,21.55
2022-12-20T12:53:12.829Z,21.20
2022-12-20T12:56:12.872Z,21.60
2022-12-20T13:01:51.904Z,21.83
2022-12-20T13:04:21.959Z,20.05
2022-12-20T13:06:49.930Z,21.17
2022-12-20T13:09:26.821Z,20.55
2022-12-20T13:12:01.462Z,21.33
2022-12-20T13:14:30.752Z,22.15
2022-12-20T13:17:22.365Z,21.67
2022-12-20T13:19:53.634Z,21.33
2022-12-20T13:22:23.785Z,20.98
2022-12-20T13:24:58.385Z,19.98
2022-12-20T13:27:29.350Z,19.55
2022-12-20T13:30:12.009Z,22.58
2022-12-20T13:32:48.385Z,22.42
2022-12-20T13:35:30.826Z,21.13
2022-12-20T13:38:04.096Z,21.25
2022-12-20T13:40:50.043Z,20.00
2022-12-20T13:45:48.070Z,20.40
2022-12-20T13:48:19.764Z,20.85
2022-12-20T13:50:53.588Z,21.55
2022-12-20T13:53:27.347Z,22.50
2022-12-20T13:55:56.327Z,22.73
2022-12-20T13:58:31.891Z,22.48
2022-12-20T14:01:13.816Z,23.40
2022-12-20T14:03:45.143Z,22.52
2022-12-20T14:06:14.230Z,22.67
2022-12-20T14:08:52.429Z,34.15
2022-12-20T14:11:27.227Z,24.05
2022-12-20T14:14:03.636Z,22.38
2022-12-20T14:16:32.888Z,22.30
2022-12-20T14:19:05.857Z,24.05
2022-12-20T14:21:39.708Z,21.33
2022-12-20T14:24:15.978Z,22.75
2022-12-20T14:26:47.728Z,20.60
2022-12-20T14:29:25.050Z,25.10
2022-12-20T14:31:52.205Z,22.35
2022-12-20T14:34:29.479Z,23.55
2022-12-20T14:37:32.345Z,23.65
2022-12-20T14:40:11.381Z,24.35
2022-12-20T14:42:39.926Z,23.08
2022-12-20T14:45:10.885Z,24.33
2022-12-20T14:47:38.998Z,25.90
2022-12-20T14:50:18.048Z,24.15
2022-12-20T14:52:47.898Z,26.17
2022-12-20T14:55:22.441Z,27.52
2022-12-20T14:57:52.071Z,32.70
2022-12-20T15:00:19.642Z,32.05
2022-12-20T15:02:52.542Z,30.30
2022-12-20T15:05:36.574Z,29.15
2022-12-20T15:08:34.341Z,27.40
2022-12-20T15:11:18.016Z,25.42
2022-12-20T15:13:54.563Z,25.10
2022-12-20T15:16:27.232Z,24.73
2022-12-20T15:19:05.059Z,27.02
2022-12-20T15:21:38.479Z,23.73
2022-12-20T15:24:10.648Z,23.95
2022-12-20T15:26:37.835Z,27.40
2022-12-20T15:29:05.412Z,25.27
2022-12-20T15:31:37.091Z,29.75
2022-12-20T15:34:10.412Z,24.60
2022-12-20T15:36:38.703Z,22.55
2022-12-20T15:39:14.804Z,23.45
2022-12-20T15:41:46.369Z,21.58
2022-12-20T15:44:26.073Z,23.27
2022-12-20T15:46:53.232Z,23.90
2022-12-20T15:49:25.582Z,23.13
2022-12-20T15:51:54.062Z,23.83
2022-12-20T15:54:35.881Z,24.30
2022-12-20T15:57:10.095Z,24.25
2022-12-20T16:02:27.069Z,25.33
2022-12-20T16:04:55.531Z,32.75
2022-12-20T16:07:24.033Z,26.20
2022-12-20T16:09:51.506Z,25.60
2022-12-20T16:12:23.592Z,26.15
2022-12-20T16:14:52.085Z,23.27
2022-12-20T16:17:20.151Z,21.10
2022-12-20T16:19:47.415Z,23.25
2022-12-20T16:22:22.508Z,23.65
2022-12-20T16:24:50.120Z,22.67
2022-12-20T16:27:19.101Z,22.58
2022-12-20T16:29:46.192Z,22.17
2022-12-20T16:32:18.502Z,22.77
2022-12-20T16:34:47.281Z,21.50
2022-12-20T16:37:14.622Z,22.52
2022-12-20T16:39:42.138Z,22.70
2022-12-20T16:42:17.511Z,23.50
2022-12-20T16:44:45.509Z,24.77
2022-12-20T16:47:14.465Z,22.05
2022-12-20T16:49:49.656Z,22.73
2022-12-20T16:52:19.753Z,21.42
2022-12-20T16:54:47.198Z,21.80
2022-12-20T16:57:14.344Z,26.45
2022-12-20T16:59:41.568Z,24.85
2022-12-20T17:02:38.079Z,25.88
2022-12-20T17:05:05.659Z,23.45
2022-12-20T17:07:38.012Z,25.42
2022-12-20T17:10:10.381Z,22.17
2022-12-20T17:12:37.427Z,26.45
2022-12-20T17:15:05.003Z,26.38
2022-12-20T17:17:32.051Z,24.85
2022-12-20T17:19:59.263Z,24.25
2022-12-20T17:22:26.730Z,25.40
2022-12-20T17:24:55.414Z,23.50
2022-12-20T17:27:22.480Z,24.67
2022-12-20T17:29:50.853Z,23.92
2022-12-20T17:32:23.831Z,25.05
2022-12-20T17:34:51.348Z,24.40
2022-12-20T17:37:19.427Z,23.58
2022-12-20T17:39:47.652Z,22.77
2022-12-20T17:42:14.855Z,20.73
2022-12-20T17:44:42.503Z,23.27
2022-12-20T17:47:09.542Z,22.40
2022-12-20T17:49:36.531Z,24.17
2022-12-20T17:52:03.938Z,22.63
2022-12-20T17:54:38.891Z,23.38
2022-12-20T17:57:12.519Z,24.23
2022-12-20T17:59:49.862Z,23.10
2022-12-20T18:02:26.023Z,25.10
2022-12-20T18:04:54.039Z,23.40
2022-12-20T18:07:23.181Z,30.02
2022-12-20T18:09:50.506Z,24.35
2022-12-20T18:12:17.910Z,24.35
2022-12-20T18:14:45.935Z,23.05
2022-12-20T18:17:13.106Z,23.58
2022-12-20T18:19:40.972Z,24.77
2022-12-20T18:22:07.952Z,24.98
2022-12-20T18:24:35.033Z,23.23
2022-12-20T18:27:01.963Z,20.30
2022-12-20T18:29:29.724Z,22.80
2022-12-20T18:31:56.948Z,23.20
2022-12-20T18:34:24.070Z,23.05
2022-12-20T18:36:50.976Z,22.85
2022-12-20T18:39:19.998Z,23.13
2022-12-20T18:41:48.641Z,24.55
2022-12-20T18:44:16.044Z,22.40
2022-12-20T18:46:42.992Z,23.38
2022-12-20T18:49:10.243Z,21.35
2022-12-20T18:51:37.340Z,23.15
2022-12-20T18:54:07.333Z,23.35
2022-12-20T18:56:37.524Z,23.25
2022-12-20T18:59:11.535Z,23.17
2022-12-20T19:01:41.274Z,22.03
2022-12-20T19:04:09.542Z,24.17
2022-12-20T19:06:37.802Z,22.17
2022-12-20T19:09:09.740Z,22.02
2022-12-20T19:11:37.660Z,24.27
2022-12-20T19:14:04.856Z,22.35
2022-12-20T19:16:33.318Z,24.30
2022-12-20T19:19:02.235Z,24.42
2022-12-20T19:21:31.876Z,23.25
2022-12-20T19:24:03.937Z,22.63
2022-12-20T19:26:31.636Z,22.40
2022-12-20T19:28:59.268Z,21.88
2022-12-20T19:31:29.243Z,22.33
2022-12-20T19:33:58.999Z,23.88
2022-12-20T19:36:32.744Z,24.20
2022-12-20T19:39:01.501Z,21.00
2022-12-20T19:41:31.828Z,24.10
2022-12-20T19:44:00.991Z,24.42
2022-12-20T19:46:30.028Z,21.90
2022-12-20T19:48:58.888Z,21.85
2022-12-20T19:51:27.763Z,22.48
2022-12-20T19:53:56.118Z,21.48
2022-12-20T19:56:29.128Z,21.65
2022-12-20T19:58:56.713Z,21.45
2022-12-20T20:01:27.187Z,21.30
2022-12-20T20:03:56.224Z,20.58
2022-12-20T20:06:23.949Z,21.65
2022-12-20T20:08:51.150Z,22.50
2022-12-20T20:11:19.369Z,21.88
2022-12-20T20:13:50.829Z,21.98
2022-12-20T20:16:22.288Z,20.10
2022-12-20T20:18:50.138Z,21.45
2022-12-20T20:21:21.633Z,21.65
2022-12-20T20:23:50.773Z,21.23
2022-12-20T20:26:26.475Z,21.27
2022-12-20T20:28:54.337Z,19.35
2022-12-20T20:31:22.837Z,22.02
2022-12-20T20:33:50.639Z,20.05
2022-12-20T20:36:20.899Z,19.17
2022-12-20T20:38:48.431Z,21.20
2022-12-20T20:41:17.394Z,19.42
2022-12-20T20:43:44.818Z,19.40
2022-12-20T20:46:14.220Z,20.02
2022-12-20T20:48:41.901Z,19.63
2022-12-20T20:51:09.316Z,21.15
2022-12-20T20:53:37.392Z,20.65
2022-12-20T20:56:06.307Z,20.60
2022-12-20T20:58:34.569Z,20.45
2022-12-20T21:01:03.683Z,20.60
2022-12-20T21:03:32.195Z,19.55
2022-12-20T21:06:34.859Z,20.67
2022-12-20T21:08:46.433Z,18.63
2022-12-20T21:11:13.762Z,20.23
2022-12-20T21:13:40.867Z,19.60
2022-12-20T21:16:11.324Z,19.70
2022-12-20T21:18:39.288Z,19.20
2022-12-20T21:21:11.358Z,21.42
2022-12-20T21:23:39.732Z,20.60
2022-12-20T21:26:07.697Z,21.17
2022-12-20T21:28:35.736Z,23.17
2022-12-20T21:31:09.952Z,22.15
2022-12-20T21:33:37.895Z,18.45
2022-12-20T21:36:07.851Z,20.67
2022-12-20T21:38:35.425Z,21.50
2022-12-20T21:41:08.464Z,21.27
2022-12-20T21:43:44.045Z,21.73
2022-12-20T21:46:12.469Z,20.35
2022-12-20T21:48:41.052Z,21.50
2022-12-20T21:51:14.036Z,19.20
2022-12-20T21:53:47.442Z,19.30
2022-12-20T21:56:15.851Z,20.67
2022-12-20T21:58:45.908Z,19.88
2022-12-20T22:01:14.682Z,20.85
2022-12-20T22:03:42.267Z,22.23
2022-12-20T22:06:09.325Z,18.60
2022-12-20T22:08:36.839Z,20.50
2022-12-20T22:11:09.907Z,22.25
2022-12-20T22:13:41.526Z,22.00
2022-12-20T22:16:15.473Z,21.33
2022-12-20T22:18:43.650Z,21.10
2022-12-20T22:21:13.330Z,23.35
2022-12-20T22:23:40.586Z,22.60
2022-12-20T22:26:14.212Z,21.90
2022-12-20T22:28:49.258Z,22.50
2022-12-20T22:31:17.762Z,21.60
2022-12-20T22:33:45.526Z,20.33
2022-12-20T22:36:14.883Z,21.55
2022-12-20T22:38:43.485Z,22.70
2022-12-20T22:41:19.573Z,21.23
2022-12-20T22:46:16.308Z,20.10
2022-12-20T22:48:43.992Z,21.17
2022-12-20T22:51:23.581Z,21.25
2022-12-20T22:53:51.149Z,21.23
2022-12-20T22:56:21.236Z,21.70
2022-12-20T22:58:49.284Z,20.92
2022-12-20T23:01:19.287Z,22.08
2022-12-20T23:03:47.126Z,18.55
2022-12-20T23:06:17.839Z,19.15
2022-12-20T23:08:45.508Z,19.45
2022-12-20T23:11:43.896Z,19.90
2022-12-20T23:14:40.657Z,20.80
2022-12-20T23:17:11.057Z,20.90
2022-12-20T23:19:56.663Z,20.35
2022-12-20T23:22:40.440Z,18.92
2022-12-20T23:25:13.615Z,20.33
2022-12-20T23:27:41.980Z,19.67
2022-12-20T23:30:11.899Z,20.25
2022-12-20T23:32:39.124Z,20.90
2022-12-20T23:35:12.256Z,19.92
2022-12-20T23:37:39.677Z,21.85
2022-12-20T23:40:07.937Z,20.52
2022-12-20T23:42:35.004Z,21.60
2022-12-20T23:45:02.063Z,18.77
2022-12-20T23:47:29.067Z,22.33
2022-12-20T23:49:56.014Z,19.20
2022-12-20T23:52:22.967Z,19.17
2022-12-20T23:54:49.836Z,19.48
2022-12-20T23:57:16.819Z,20.50
2022-12-20T23:59:44.929Z,19.02
